Time,TemperatureF,DewpointF,PressureIn,WindDirection,WindDirectionDegrees,WindSpeedMPH,WindSpeedGustMPH,Humidity,HourlyPrecipIn,Conditions,Clouds,dailyrainin,SolarRadiationWatts/m^2,SoftwareType,DateUTC
2013-08-28 00:01:00,72.9,71.7,30.01,WSW,251,0.0,0.0,96,0.00,,,0.00,0,Wunderground v.1.15,2013-08-28 04:01:00,
2013-08-28 00:02:00,73.0,71.8,30.01,WSW,251,0.0,0.0,96,0.00,,,0.00,0,Wunderground v.1.15,2013-08-28 04:02:00,
2013-08-28 00:03:00,73.0,71.8,30.01,WSW,251,0.0,0.0,96,0.00,,,0.00,0,Wunderground v.1.15,2013-08-28 04:03:00,
2013-08-28 00:05:00,73.0,71.8,30.01,WSW,251,0.0,0.0,96,0.00,,,0.00,0,Wunderground v.1.15,2013-08-28 04:05:00,
2013-08-28 00:07:00,73.0,71.8,30.01,WSW,251,0.0,0.0,96,0.00,,,0.00,0,Wunderground v.1.15,2013-08-28 04:07:00,
2013-08-28 00:12:00,73.4,72.2,30.01,WSW,251,0.0,0.0,96,0.00,,,0.00,0,Wunderground v.1.15,2013-08-28 04:12:00,
2013-08-28 00:18:00,73.5,72.0,30.01,WSW,251,0.0,0.0,95,0.00,,,0.00,0,Wunderground v.1.15,2013-08-28 04:18:00,
2013-08-28 00:23:00,73.3,71.8,30.01,WSW,251,0.0,0.0,95,0.00,,,0.00,0,Wunderground v.1.15,2013-08-28 04:23:00,
2013-08-28 00:28:00,74.2,72.7,30.01,WSW,251,0.0,0.0,95,0.00,,,0.00,0,Wunderground v.1.15,2013-08-28 04:28:00,
2013-08-28 00:34:00,73.9,72.1,30.01,WSW,251,0.0,0.0,94,0.00,,,0.00,0,Wunderground v.1.15,2013-08-28 04:34:00,
2013-08-28 00:39:00,74.0,72.2,30.01,WSW,251,0.0,0.0,94,0.00,,,0.00,0,Wunderground v.1.15,2013-08-28 04:39:00,
2013-08-28 00:44:00,74.1,72.3,30.01,WSW,251,0.0,0.0,94,0.00,,,0.00,0,Wunderground v.1.15,2013-08-28 04:44:00,
2013-08-28 00:49:00,73.9,72.1,30.01,WSW,251,0.0,0.0,94,0.00,,,0.00,0,Wunderground v.1.15,2013-08-28 04:49:00,
2013-08-28 00:55:00,74.2,72.4,30.00,WSW,251,0.0,0.0,94,0.00,,,0.00,0,Wunderground v.1.15,2013-08-28 04:55:00,
2013-08-28 01:01:00,74.3,72.1,30.00,WSW,251,0.0,0.0,93,0.00,,,0.00,0,Wunderground v.1.15,2013-08-28 05:01:00,
2013-08-28 01:07:00,74.0,72.2,30.00,WSW,251,0.0,0.0,94,0.00,,,0.00,0,Wunderground v.1.15,2013-08-28 05:07:00,
2013-08-28 01:12:00,74.0,72.2,30.00,WSW,251,0.0,0.0,94,0.00,,,0.00,0,Wunderground v.1.15,2013-08-28 05:12:00,
2013-08-28 01:18:00,74.1,72.3,30.00,WSW,251,0.0,0.0,94,0.00,,,0.00,0,Wunderground v.1.15,2013-08-28 05:18:00,
2013-08-28 01:23:00,73.8,72.0,30.00,WSW,251,0.0,0.0,94,0.00,,,0.00,0,Wunderground v.1.15,2013-08-28 05:23:00,
2013-08-28 01:29:00,73.7,71.9,30.00,WSW,251,0.0,0.0,94,0.00,,,0.00,0,Wunderground v.1.15,2013-08-28 05:29:00,
2013-08-28 01:35:00,73.4,71.6,30.00,WSW,251,0.0,0.0,94,0.00,,,0.00,0,Wunderground v.1.15,2013-08-28 05:35:00,
2013-08-28 01:40:00,73.2,71.7,30.00,WSW,251,0.0,0.0,95,0.00,,,0.00,0,Wunderground v.1.15,2013-08-28 05:40:00,
2013-08-28 01:46:00,73.2,71.7,30.00,WSW,251,0.0,0.0,95,0.00,,,0.00,0,Wunderground v.1.15,2013-08-28 05:46:00,
2013-08-28 01:51:00,72.9,71.4,30.00,WSW,251,0.0,0.0,95,0.00,,,0.00,0,Wunderground v.1.15,2013-08-28 05:51:00,
2013-08-28 01:57:00,72.6,71.4,29.99,WSW,251,0.0,0.0,96,0.00,,,0.00,0,Wunderground v.1.15,2013-08-28 05:57:00,
2013-08-28 02:02:00,72.5,71.3,29.99,WSW,251,0.0,0.0,96,0.00,,,0.00,0,Wunderground v.1.15,2013-08-28 06:02:00,
2013-08-28 02:07:00,72.3,71.1,30.00,WSW,251,0.0,0.0,96,0.00,,,0.00,0,Wunderground v.1.15,2013-08-28 06:07:00,
2013-08-28 02:12:00,72.3,71.1,29.99,WSW,251,0.0,0.0,96,0.00,,,0.00,0,Wunderground v.1.15,2013-08-28 06:12:00,
2013-08-28 02:17:00,72.3,71.4,29.99,WSW,251,0.0,0.0,97,0.00,,,0.00,0,Wunderground v.1.15,2013-08-28 06:17:00,
2013-08-28 02:22:00,72.4,71.5,29.99,WSW,251,0.0,0.0,97,0.00,,,0.00,0,Wunderground v.1.15,2013-08-28 06:22:00,
2013-08-28 02:27:00,72.4,71.5,29.99,WSW,251,0.0,0.0,97,0.00,,,0.00,0,Wunderground v.1.15,2013-08-28 06:27:00,
2013-08-28 02:32:00,72.3,71.4,29.99,WSW,251,0.0,0.0,97,0.00,,,0.00,0,Wunderground v.1.15,2013-08-28 06:32:00,
2013-08-28 02:37:00,72.4,71.5,29.99,WSW,251,0.0,0.0,97,0.00,,,0.00,0,Wunderground v.1.15,2013-08-28 06:37:00,
2013-08-28 02:42:00,72.6,71.4,29.99,WSW,251,0.0,0.0,96,0.00,,,0.00,0,Wunderground v.1.15,2013-08-28 06:42:00,
2013-08-28 02:47:00,72.2,71.0,29.99,WSW,251,0.0,0.0,96,0.00,,,0.00,0,Wunderground v.1.15,2013-08-28 06:47:00,
2013-08-28 02:52:00,72.0,70.8,29.98,WSW,251,0.0,0.0,96,0.00,,,0.00,0,Wunderground v.1.15,2013-08-28 06:52:00,
2013-08-28 02:57:00,71.9,70.7,29.98,WSW,251,0.0,0.0,96,0.00,,,0.00,0,Wunderground v.1.15,2013-08-28 06:57:00,
2013-08-28 03:02:00,71.8,70.9,29.98,WSW,251,0.0,0.0,97,0.00,,,0.00,0,Wunderground v.1.15,2013-08-28 07:02:00,
2013-08-28 03:08:00,71.6,70.7,29.98,WSW,251,0.0,0.0,97,0.00,,,0.00,0,Wunderground v.1.15,2013-08-28 07:08:00,
2013-08-28 03:13:00,71.5,70.6,29.98,WSW,251,0.0,0.0,97,0.00,,,0.00,0,Wunderground v.1.15,2013-08-28 07:13:00,
2013-08-28 03:18:00,71.3,70.4,29.98,WSW,251,0.0,0.0,97,0.00,,,0.00,0,Wunderground v.1.15,2013-08-28 07:18:00,
2013-08-28 03:23:00,71.2,70.3,29.97,WSW,251,0.0,0.0,97,0.00,,,0.00,0,Wunderground v.1.15,2013-08-28 07:23:00,
2013-08-28 03:28:00,70.8,69.9,29.97,WSW,251,0.0,0.0,97,0.00,,,0.00,0,Wunderground v.1.15,2013-08-28 07:28:00,
2013-08-28 03:33:00,71.0,70.1,29.97,WSW,251,0.0,0.0,97,0.00,,,0.00,0,Wunderground v.1.15,2013-08-28 07:33:00,
2013-08-28 03:38:00,70.6,69.7,29.98,WSW,252,0.0,1.0,97,0.00,,,0.00,0,Wunderground v.1.15,2013-08-28 07:38:00,
2013-08-28 03:43:00,70.8,69.9,29.98,WSW,252,0.0,0.0,97,0.00,,,0.00,0,Wunderground v.1.15,2013-08-28 07:43:00,
2013-08-28 03:48:00,70.9,70.0,29.98,WSW,252,0.0,0.0,97,0.00,,,0.00,0,Wunderground v.1.15,2013-08-28 07:48:00,
2013-08-28 03:53:00,70.6,69.7,29.98,SW,217,0.0,0.0,97,0.00,,,0.00,0,Wunderground v.1.15,2013-08-28 07:53:00,
2013-08-28 03:58:00,71.1,70.5,29.98,SW,217,0.0,0.0,98,0.00,,,0.00,0,Wunderground v.1.15,2013-08-28 07:58:00,
2013-08-28 04:03:00,70.9,70.0,29.98,SW,217,0.0,0.0,97,0.00,,,0.00,0,Wunderground v.1.15,2013-08-28 08:03:00,
2013-08-28 04:08:00,70.2,69.3,29.97,SW,217,0.0,0.0,97,0.00,,,0.00,0,Wunderground v.1.15,2013-08-28 08:08:00,
2013-08-28 04:13:00,70.6,70.0,29.97,SW,217,0.0,0.0,98,0.00,,,0.00,0,Wunderground v.1.15,2013-08-28 08:13:00,
2013-08-28 04:18:00,70.4,69.5,29.97,SW,217,0.0,0.0,97,0.00,,,0.00,0,Wunderground v.1.15,2013-08-28 08:18:00,
2013-08-28 04:23:00,69.8,68.9,29.97,SW,217,0.0,0.0,97,0.00,,,0.00,0,Wunderground v.1.15,2013-08-28 08:23:00,
2013-08-28 04:28:00,70.1,69.2,29.97,SW,217,0.0,0.0,97,0.00,,,0.00,0,Wunderground v.1.15,2013-08-28 08:28:00,
2013-08-28 04:33:00,69.6,68.7,29.97,SW,217,0.0,0.0,97,0.00,,,0.00,0,Wunderground v.1.15,2013-08-28 08:33:00,
2013-08-28 04:38:00,69.6,68.7,29.97,SW,217,0.0,0.0,97,0.00,,,0.00,0,Wunderground v.1.15,2013-08-28 08:38:00,
2013-08-28 04:43:00,69.7,68.8,29.97,SW,217,0.0,0.0,97,0.00,,,0.00,0,Wunderground v.1.15,2013-08-28 08:43:00,
2013-08-28 04:48:00,69.7,69.1,29.97,SW,217,0.0,0.0,98,0.00,,,0.00,0,Wunderground v.1.15,2013-08-28 08:48:00,
2013-08-28 04:53:00,69.8,69.2,29.98,SW,217,0.0,0.0,98,0.00,,,0.00,0,Wunderground v.1.15,2013-08-28 08:53:00,
2013-08-28 04:59:00,69.6,69.0,29.98,SW,217,0.0,0.0,98,0.00,,,0.00,0,Wunderground v.1.15,2013-08-28 08:59:00,
2013-08-28 05:04:00,69.5,68.6,29.97,SW,217,0.0,0.0,97,0.00,,,0.00,0,Wunderground v.1.15,2013-08-28 09:04:00,
2013-08-28 05:09:00,69.2,68.6,29.97,SW,217,0.0,0.0,98,0.00,,,0.00,0,Wunderground v.1.15,2013-08-28 09:09:00,
2013-08-28 05:14:00,69.2,68.6,29.98,SW,217,0.0,0.0,98,0.00,,,0.00,0,Wunderground v.1.15,2013-08-28 09:14:00,
2013-08-28 05:19:00,68.9,68.3,29.98,SW,217,0.0,0.0,98,0.00,,,0.00,0,Wunderground v.1.15,2013-08-28 09:19:00,
2013-08-28 05:24:00,68.9,68.3,29.97,SW,217,0.0,0.0,98,0.00,,,0.00,0,Wunderground v.1.15,2013-08-28 09:24:00,
2013-08-28 05:29:00,68.9,68.3,29.98,SW,217,0.0,0.0,98,0.00,,,0.00,0,Wunderground v.1.15,2013-08-28 09:29:00,
2013-08-28 05:34:00,69.1,68.5,29.98,SW,217,0.0,0.0,98,0.00,,,0.00,0,Wunderground v.1.15,2013-08-28 09:34:00,
2013-08-28 05:39:00,68.9,68.3,29.98,SW,217,0.0,0.0,98,0.00,,,0.00,0,Wunderground v.1.15,2013-08-28 09:39:00,
2013-08-28 05:44:00,69.0,68.4,29.98,SW,217,0.0,0.0,98,0.00,,,0.00,0,Wunderground v.1.15,2013-08-28 09:44:00,
2013-08-28 05:49:00,68.6,68.0,29.98,SW,217,0.0,0.0,98,0.00,,,0.00,0,Wunderground v.1.15,2013-08-28 09:49:00,
2013-08-28 05:54:00,68.6,68.0,29.98,SW,217,0.0,0.0,98,0.00,,,0.00,0,Wunderground v.1.15,2013-08-28 09:54:00,
2013-08-28 05:59:00,68.8,68.2,29.98,SW,217,0.0,0.0,98,0.00,,,0.00,0,Wunderground v.1.15,2013-08-28 09:59:00,
2013-08-28 06:04:00,68.7,68.1,29.98,SW,217,0.0,0.0,98,0.00,,,0.00,0,Wunderground v.1.15,2013-08-28 10:04:00,
2013-08-28 06:09:00,69.0,68.4,29.98,SW,217,0.0,1.0,98,0.00,,,0.00,0,Wunderground v.1.15,2013-08-28 10:09:00,
2013-08-28 06:14:00,69.4,68.8,29.98,SW,217,0.0,0.0,98,0.00,,,0.00,0,Wunderground v.1.15,2013-08-28 10:14:00,
2013-08-28 06:19:00,69.3,68.7,29.98,SW,217,0.0,0.0,98,0.00,,,0.00,0,Wunderground v.1.15,2013-08-28 10:19:00,
2013-08-28 06:24:00,69.2,68.6,29.98,SW,217,0.0,0.0,98,0.00,,,0.00,0,Wunderground v.1.15,2013-08-28 10:24:00,
2013-08-28 06:29:00,69.2,68.6,29.98,SW,217,0.0,0.0,98,0.00,,,0.00,0,Wunderground v.1.15,2013-08-28 10:29:00,
2013-08-28 06:34:00,69.6,69.0,29.98,SW,217,0.0,0.0,98,0.00,,,0.00,0,Wunderground v.1.15,2013-08-28 10:34:00,
2013-08-28 06:39:00,69.8,69.2,29.98,SW,217,0.0,0.0,98,0.00,,,0.00,0,Wunderground v.1.15,2013-08-28 10:39:00,
2013-08-28 06:44:00,69.9,69.3,29.98,SW,217,0.0,0.0,98,0.00,,,0.00,7,Wunderground v.1.15,2013-08-28 10:44:00,
2013-08-28 06:49:00,70.1,69.5,29.98,SW,217,0.0,0.0,98,0.00,,,0.00,12,Wunderground v.1.15,2013-08-28 10:49:00,
2013-08-28 06:54:00,70.0,69.4,29.99,SW,217,0.0,1.0,98,0.00,,,0.00,16,Wunderground v.1.15,2013-08-28 10:54:00,
2013-08-28 06:59:00,69.9,69.3,29.99,SW,217,0.0,0.0,98,0.00,,,0.00,19,Wunderground v.1.15,2013-08-28 10:59:00,
2013-08-28 07:04:00,70.2,69.6,30.00,SW,217,0.0,0.0,98,0.00,,,0.00,25,Wunderground v.1.15,2013-08-28 11:04:00,
2013-08-28 07:09:00,70.2,69.6,30.00,SW,217,0.0,0.0,98,0.00,,,0.00,28,Wunderground v.1.15,2013-08-28 11:09:00,
2013-08-28 07:14:00,70.2,69.6,30.00,SW,217,0.0,0.0,98,0.00,,,0.00,32,Wunderground v.1.15,2013-08-28 11:14:00,
2013-08-28 07:19:00,70.3,69.7,30.00,SW,217,0.0,0.0,98,0.00,,,0.00,37,Wunderground v.1.15,2013-08-28 11:19:00,
2013-08-28 07:24:00,70.4,69.8,30.00,SW,217,0.0,0.0,98,0.00,,,0.00,39,Wunderground v.1.15,2013-08-28 11:24:00,
2013-08-28 07:30:00,70.6,70.0,30.00,SW,217,0.0,0.0,98,0.00,,,0.00,47,Wunderground v.1.15,2013-08-28 11:30:00,
2013-08-28 07:35:00,70.7,69.8,30.00,WSW,244,0.0,1.0,97,0.00,,,0.00,53,Wunderground v.1.15,2013-08-28 11:35:00,
2013-08-28 07:40:00,70.8,69.9,30.00,WSW,244,0.0,0.0,97,0.00,,,0.00,53,Wunderground v.1.15,2013-08-28 11:40:00,
2013-08-28 07:45:00,71.0,70.1,30.00,WSW,244,0.0,0.0,97,0.00,,,0.00,54,Wunderground v.1.15,2013-08-28 11:45:00,
2013-08-28 07:50:00,71.1,70.2,30.00,WSW,244,0.0,0.0,97,0.00,,,0.00,56,Wunderground v.1.15,2013-08-28 11:50:00,
2013-08-28 07:55:00,71.3,70.4,30.00,WSW,244,0.0,0.0,97,0.00,,,0.00,62,Wunderground v.1.15,2013-08-28 11:55:00,
2013-08-28 08:01:00,71.3,70.1,30.00,WSW,244,0.0,0.0,96,0.00,,,0.00,69,Wunderground v.1.15,2013-08-28 12:01:00,
2013-08-28 08:06:00,71.5,70.3,30.00,WSW,244,0.0,1.0,96,0.00,,,0.00,81,Wunderground v.1.15,2013-08-28 12:06:00,
2013-08-28 08:11:00,71.7,70.5,30.00,WSW,244,0.0,0.0,96,0.00,,,0.00,95,Wunderground v.1.15,2013-08-28 12:11:00,
2013-08-28 08:16:00,72.0,70.8,30.00,WSW,244,0.0,1.0,96,0.00,,,0.00,104,Wunderground v.1.15,2013-08-28 12:16:00,
2013-08-28 08:21:00,72.2,70.7,30.00,WSW,244,0.0,1.0,95,0.00,,,0.00,113,Wunderground v.1.15,2013-08-28 12:21:00,
2013-08-28 08:26:00,72.5,71.0,30.00,South,182,0.0,2.0,95,0.00,,,0.00,120,Wunderground v.1.15,2013-08-28 12:26:00,
2013-08-28 08:31:00,72.8,71.0,30.00,South,182,0.0,0.0,94,0.00,,,0.00,125,Wunderground v.1.15,2013-08-28 12:31:00,
2013-08-28 08:36:00,73.0,71.2,30.00,South,182,0.0,1.0,94,0.00,,,0.00,125,Wunderground v.1.15,2013-08-28 12:36:00,
2013-08-28 08:41:00,73.2,71.4,30.00,South,182,0.0,1.0,94,0.00,,,0.00,121,Wunderground v.1.15,2013-08-28 12:41:00,
2013-08-28 08:46:00,73.5,71.4,30.00,South,182,0.0,1.0,93,0.00,,,0.00,125,Wunderground v.1.15,2013-08-28 12:46:00,
2013-08-28 08:51:00,73.5,71.4,30.00,SW,229,0.0,3.0,93,0.00,,,0.00,128,Wunderground v.1.15,2013-08-28 12:51:00,
2013-08-28 08:56:00,73.6,71.1,30.00,WNW,302,0.0,3.0,92,0.00,,,0.00,139,Wunderground v.1.15,2013-08-28 12:56:00,
2013-08-28 09:01:00,73.6,71.1,30.01,SW,232,0.0,1.0,92,0.00,,,0.00,151,Wunderground v.1.15,2013-08-28 13:01:00,
2013-08-28 09:06:00,73.8,71.3,30.01,West,275,0.0,2.0,92,0.00,,,0.00,153,Wunderground v.1.15,2013-08-28 13:06:00,
2013-08-28 09:11:00,73.9,71.4,30.01,West,275,0.0,1.0,92,0.00,,,0.00,148,Wunderground v.1.15,2013-08-28 13:11:00,
2013-08-28 09:16:00,73.9,71.1,30.01,West,260,1.0,3.0,91,0.00,,,0.00,146,Wunderground v.1.15,2013-08-28 13:16:00,
2013-08-28 09:21:00,74.1,71.6,30.01,SW,220,0.0,1.0,92,0.00,,,0.00,148,Wunderground v.1.15,2013-08-28 13:21:00,
2013-08-28 09:26:00,74.2,71.7,30.01,WNW,284,3.0,3.0,92,0.00,,,0.00,153,Wunderground v.1.15,2013-08-28 13:26:00,
2013-08-28 09:31:00,74.3,71.5,30.01,West,268,0.0,2.0,91,0.00,,,0.00,153,Wunderground v.1.15,2013-08-28 13:31:00,
2013-08-28 09:36:00,74.6,71.8,30.01,SSW,198,0.0,3.0,91,0.00,,,0.00,153,Wunderground v.1.15,2013-08-28 13:36:00,
2013-08-28 09:41:00,74.7,71.9,30.01,West,265,0.0,0.0,91,0.00,,,0.00,149,Wunderground v.1.15,2013-08-28 13:41:00,
2013-08-28 09:46:00,74.9,71.8,30.02,West,265,0.0,1.0,90,0.00,,,0.00,144,Wunderground v.1.15,2013-08-28 13:46:00,
2013-08-28 09:51:00,75.0,71.9,30.02,West,274,0.0,2.0,90,0.00,,,0.00,149,Wunderground v.1.15,2013-08-28 13:51:00,
2013-08-28 09:56:00,74.9,71.8,30.02,NW,317,0.0,4.0,90,0.00,,,0.00,163,Wunderground v.1.15,2013-08-28 13:56:00,
2013-08-28 10:02:00,75.0,71.9,30.02,NW,316,0.0,1.0,90,0.00,,,0.00,169,Wunderground v.1.15,2013-08-28 14:02:00,
2013-08-28 10:06:00,75.3,72.2,30.03,West,279,0.0,3.0,90,0.00,,,0.00,179,Wunderground v.1.15,2013-08-28 14:06:00,
2013-08-28 10:11:00,75.4,72.3,30.02,West,279,0.0,0.0,90,0.00,,,0.00,179,Wunderground v.1.15,2013-08-28 14:11:00,
2013-08-28 10:17:00,75.6,72.5,30.02,West,279,0.0,0.0,90,0.00,,,0.00,169,Wunderground v.1.15,2013-08-28 14:17:00,
2013-08-28 10:22:00,75.8,72.7,30.02,West,279,0.0,0.0,90,0.00,,,0.00,165,Wunderground v.1.15,2013-08-28 14:22:00,
2013-08-28 10:27:00,76.0,72.5,30.02,West,279,0.0,0.0,89,0.00,,,0.00,167,Wunderground v.1.15,2013-08-28 14:27:00,
2013-08-28 10:32:00,76.0,72.5,30.02,West,279,0.0,1.0,89,0.00,,,0.00,172,Wunderground v.1.15,2013-08-28 14:32:00,
2013-08-28 10:36:00,76.0,72.5,30.02,NW,321,0.0,3.0,89,0.00,,,0.00,195,Wunderground v.1.15,2013-08-28 14:36:00,
2013-08-28 10:42:00,76.2,72.4,30.03,North,5,1.0,2.0,88,0.00,,,0.00,211,Wunderground v.1.15,2013-08-28 14:42:00,
2013-08-28 10:46:00,76.3,72.5,30.02,NE,35,1.0,4.0,88,0.00,,,0.00,223,Wunderground v.1.15,2013-08-28 14:46:00,
2013-08-28 10:52:00,76.4,72.6,30.03,NNW,329,2.0,3.0,88,0.00,,,0.00,211,Wunderground v.1.15,2013-08-28 14:52:00,
2013-08-28 10:57:00,76.4,72.6,30.03,West,259,0.0,5.0,88,0.00,,,0.00,197,Wunderground v.1.15,2013-08-28 14:57:00,
2013-08-28 11:02:00,76.5,72.7,30.03,NNW,330,2.0,2.0,88,0.00,,,0.00,185,Wunderground v.1.15,2013-08-28 15:02:00,
2013-08-28 11:07:00,76.5,72.7,30.03,NNW,342,1.0,3.0,88,0.00,,,0.00,190,Wunderground v.1.15,2013-08-28 15:07:00,
2013-08-28 11:12:00,76.5,72.7,30.03,NW,308,0.0,1.0,88,0.00,,,0.00,197,Wunderground v.1.15,2013-08-28 15:12:00,
2013-08-28 11:17:00,76.5,72.3,30.03,NNW,341,0.0,4.0,87,0.00,,,0.00,200,Wunderground v.1.15,2013-08-28 15:17:00,
2013-08-28 11:22:00,76.7,72.9,30.03,NNE,12,0.0,2.0,88,0.00,,,0.00,202,Wunderground v.1.15,2013-08-28 15:22:00,
2013-08-28 11:27:00,76.8,72.6,30.03,North,5,0.0,3.0,87,0.00,,,0.00,200,Wunderground v.1.15,2013-08-28 15:27:00,
2013-08-28 11:32:00,76.9,72.7,30.03,NNW,348,1.0,2.0,87,0.00,,,0.00,206,Wunderground v.1.15,2013-08-28 15:32:00,
2013-08-28 11:37:00,77.1,72.2,30.03,NNW,340,0.0,3.0,85,0.00,,,0.00,190,Wunderground v.1.15,2013-08-28 15:37:00,
2013-08-28 11:42:00,77.2,72.3,30.03,NNW,347,2.0,5.0,85,0.00,,,0.00,172,Wunderground v.1.15,2013-08-28 15:42:00,
2013-08-28 11:47:00,76.9,72.0,30.03,NW,319,0.0,5.0,85,0.00,,,0.00,155,Wunderground v.1.15,2013-08-28 15:47:00,
2013-08-28 11:52:00,76.8,71.6,30.03,NW,325,5.0,5.0,84,0.00,,,0.00,148,Wunderground v.1.15,2013-08-28 15:52:00,
2013-08-28 11:57:00,76.5,71.3,30.03,NW,317,4.0,6.0,84,0.00,,,0.00,139,Wunderground v.1.15,2013-08-28 15:57:00,
2013-08-28 12:02:00,76.3,71.5,30.03,NNE,21,1.0,5.0,85,0.00,,,0.00,137,Wunderground v.1.15,2013-08-28 16:02:00,
2013-08-28 12:07:00,75.9,71.4,30.02,North,5,1.0,5.0,86,0.00,,,0.00,135,Wunderground v.1.15,2013-08-28 16:07:00,
2013-08-28 12:12:00,75.6,71.8,30.02,NNW,331,0.0,2.0,88,0.00,,,0.00,146,Wunderground v.1.15,2013-08-28 16:12:00,
2013-08-28 12:17:00,75.5,71.7,30.02,NNW,348,3.0,4.0,88,0.00,,,0.00,153,Wunderground v.1.15,2013-08-28 16:17:00,
2013-08-28 12:22:00,75.4,71.6,30.02,NNE,15,2.0,4.0,88,0.00,,,0.00,160,Wunderground v.1.15,2013-08-28 16:22:00,
2013-08-28 12:27:00,75.3,71.2,30.01,NNE,28,5.0,5.0,87,0.00,,,0.00,167,Wunderground v.1.15,2013-08-28 16:27:00,
2013-08-28 12:32:00,75.6,71.1,30.01,NNE,32,3.0,5.0,86,0.00,,,0.00,171,Wunderground v.1.15,2013-08-28 16:32:00,
2013-08-28 12:37:00,76.0,71.5,30.00,ESE,121,1.0,5.0,86,0.00,,,0.00,185,Wunderground v.1.15,2013-08-28 16:37:00,
2013-08-28 12:42:00,75.5,72.7,30.01,SW,234,0.0,2.0,91,0.00,,,0.00,200,Wunderground v.1.15,2013-08-28 16:42:00,
2013-08-28 12:47:00,74.8,72.3,30.01,WNW,300,1.0,2.0,92,0.00,,,0.00,211,Wunderground v.1.15,2013-08-28 16:47:00,
2013-08-28 12:52:00,75.0,72.5,30.01,West,281,0.0,2.0,92,0.00,,,0.00,218,Wunderground v.1.15,2013-08-28 16:52:00,
2013-08-28 12:57:00,75.3,72.8,30.01,West,280,0.0,2.0,92,0.00,,,0.00,225,Wunderground v.1.15,2013-08-28 16:57:00,
2013-08-28 13:02:00,75.3,72.8,30.01,WSW,242,2.0,2.0,92,0.00,,,0.00,221,Wunderground v.1.15,2013-08-28 17:02:00,
2013-08-28 13:08:00,75.6,72.5,30.00,SW,215,1.0,3.0,90,0.00,,,0.00,204,Wunderground v.1.15,2013-08-28 17:08:00,
2013-08-28 13:13:00,75.6,72.1,30.00,SW,228,1.0,3.0,89,0.00,,,0.00,169,Wunderground v.1.15,2013-08-28 17:13:00,
2013-08-28 13:18:00,75.4,72.3,30.00,SW,219,0.0,4.0,90,0.00,,,0.00,163,Wunderground v.1.15,2013-08-28 17:18:00,
2013-08-28 13:23:00,75.1,72.0,30.00,SW,219,0.0,3.0,90,0.00,,,0.00,160,Wunderground v.1.15,2013-08-28 17:23:00,
2013-08-28 13:28:00,75.0,71.9,30.00,SSW,210,0.0,3.0,90,0.00,,,0.00,158,Wunderground v.1.15,2013-08-28 17:28:00,
2013-08-28 13:33:00,75.1,72.3,30.00,SSW,209,0.0,1.0,91,0.00,,,0.00,183,Wunderground v.1.15,2013-08-28 17:33:00,
2013-08-28 13:38:00,75.3,72.5,29.99,SSW,210,1.0,2.0,91,0.00,,,0.00,209,Wunderground v.1.15,2013-08-28 17:38:00,
2013-08-28 13:43:00,75.3,72.5,30.00,WSW,254,0.0,3.0,91,0.00,,,0.00,207,Wunderground v.1.15,2013-08-28 17:43:00,
2013-08-28 13:48:00,75.4,72.6,30.00,WSW,248,1.0,3.0,91,0.00,,,0.00,234,Wunderground v.1.15,2013-08-28 17:48:00,
2013-08-28 13:53:00,75.6,72.8,30.00,SSW,211,0.0,2.0,91,0.00,,,0.00,294,Wunderground v.1.15,2013-08-28 17:53:00,
2013-08-28 13:58:00,76.1,73.3,30.00,SW,225,1.0,3.0,91,0.00,,,0.00,334,Wunderground v.1.15,2013-08-28 17:58:00,
2013-08-28 14:03:00,76.4,72.6,30.00,SSW,203,2.0,3.0,88,0.00,,,0.00,338,Wunderground v.1.15,2013-08-28 18:03:00,
2013-08-28 14:08:00,76.7,72.5,29.99,SSW,211,2.0,3.0,87,0.00,,,0.00,350,Wunderground v.1.15,2013-08-28 18:08:00,
2013-08-28 14:13:00,76.9,73.1,30.00,SSW,207,2.0,2.0,88,0.00,,,0.00,281,Wunderground v.1.15,2013-08-28 18:13:00,
2013-08-28 14:18:00,77.1,72.6,29.99,SW,224,1.0,3.0,86,0.00,,,0.00,262,Wunderground v.1.15,2013-08-28 18:18:00,
2013-08-28 14:23:00,77.0,72.1,29.98,SSW,196,2.0,2.0,85,0.00,,,0.00,246,Wunderground v.1.15,2013-08-28 18:23:00,
2013-08-28 14:28:00,77.1,71.5,29.98,SSW,196,0.0,3.0,83,0.00,,,0.00,274,Wunderground v.1.15,2013-08-28 18:28:00,
2013-08-28 14:33:00,77.4,72.2,29.99,SSW,192,2.0,2.0,84,0.00,,,0.00,299,Wunderground v.1.15,2013-08-28 18:33:00,
2013-08-28 14:38:00,77.5,72.3,29.98,SSW,200,2.0,4.0,84,0.00,,,0.00,260,Wunderground v.1.15,2013-08-28 18:38:00,
2013-08-28 14:43:00,77.6,71.3,29.98,South,186,2.0,3.0,81,0.00,,,0.00,225,Wunderground v.1.15,2013-08-28 18:43:00,
2013-08-28 14:48:00,77.6,72.0,29.98,South,186,0.0,3.0,83,0.00,,,0.00,204,Wunderground v.1.15,2013-08-28 18:48:00,
2013-08-28 14:53:00,77.6,71.7,29.98,South,186,1.0,3.0,82,0.00,,,0.00,190,Wunderground v.1.15,2013-08-28 18:53:00,
2013-08-28 14:58:00,77.5,73.0,29.97,South,186,0.0,3.0,86,0.00,,,0.00,186,Wunderground v.1.15,2013-08-28 18:58:00,
2013-08-28 15:03:00,77.5,72.6,29.97,South,186,0.0,2.0,85,0.00,,,0.00,178,Wunderground v.1.15,2013-08-28 19:03:00,
2013-08-28 15:08:00,77.3,72.4,29.97,South,184,0.0,2.0,85,0.00,,,0.00,155,Wunderground v.1.15,2013-08-28 19:08:00,
2013-08-28 15:13:00,77.3,72.8,29.97,SSW,202,0.0,2.0,86,0.00,,,0.00,141,Wunderground v.1.15,2013-08-28 19:13:00,
2013-08-28 15:18:00,77.0,72.5,29.97,SSW,202,0.0,2.0,86,0.00,,,0.00,127,Wunderground v.1.15,2013-08-28 19:18:00,
2013-08-28 15:24:00,77.0,72.5,29.97,South,188,1.0,3.0,86,0.00,,,0.00,120,Wunderground v.1.15,2013-08-28 19:24:00,
2013-08-28 15:29:00,76.9,72.4,29.97,SSW,208,2.0,3.0,86,0.00,,,0.00,135,Wunderground v.1.15,2013-08-28 19:29:00,
2013-08-28 15:34:00,76.8,72.6,29.97,SSW,197,0.0,4.0,87,0.00,,,0.00,171,Wunderground v.1.15,2013-08-28 19:34:00,
2013-08-28 15:39:00,76.9,72.7,29.97,SSW,201,1.0,4.0,87,0.00,,,0.00,169,Wunderground v.1.15,2013-08-28 19:39:00,
2013-08-28 15:44:00,77.1,72.9,29.96,South,186,3.0,5.0,87,0.00,,,0.00,169,Wunderground v.1.15,2013-08-28 19:44:00,
2013-08-28 15:49:00,77.2,73.0,29.96,SW,217,4.0,7.0,87,0.00,,,0.00,183,Wunderground v.1.15,2013-08-28 19:49:00,
2013-08-28 15:54:00,77.2,73.0,29.96,SSE,163,1.0,6.0,87,0.00,,,0.00,188,Wunderground v.1.15,2013-08-28 19:54:00,
2013-08-28 15:59:00,77.4,73.2,29.96,SSW,202,4.0,6.0,87,0.00,,,0.00,165,Wunderground v.1.15,2013-08-28 19:59:00,
2013-08-28 16:04:00,77.3,73.1,29.96,SW,233,3.0,5.0,87,0.00,,,0.00,169,Wunderground v.1.15,2013-08-28 20:04:00,
2013-08-28 16:09:00,77.3,73.5,29.96,SSW,209,0.0,5.0,88,0.00,,,0.00,211,Wunderground v.1.15,2013-08-28 20:09:00,
2013-08-28 16:14:00,77.5,73.3,29.96,South,178,1.0,7.0,87,0.00,,,0.00,211,Wunderground v.1.15,2013-08-28 20:14:00,
2013-08-28 16:19:00,77.6,73.4,29.95,SW,229,0.0,7.0,87,0.00,,,0.00,220,Wunderground v.1.15,2013-08-28 20:19:00,
2013-08-28 16:24:00,77.8,73.6,29.95,SW,218,2.0,3.0,87,0.00,,,0.00,227,Wunderground v.1.15,2013-08-28 20:24:00,
2013-08-28 16:29:00,78.0,73.8,29.95,SSW,210,0.0,5.0,87,0.00,,,0.00,213,Wunderground v.1.15,2013-08-28 20:29:00,
2013-08-28 16:34:00,78.2,74.4,29.96,SW,235,1.0,3.0,88,0.00,,,0.00,207,Wunderground v.1.15,2013-08-28 20:34:00,
2013-08-28 16:39:00,78.3,74.1,29.95,SW,229,1.0,4.0,87,0.00,,,0.00,237,Wunderground v.1.15,2013-08-28 20:39:00,
2013-08-28 16:44:00,78.6,74.4,29.95,SSW,194,1.0,4.0,87,0.00,,,0.00,236,Wunderground v.1.15,2013-08-28 20:44:00,
2013-08-28 16:49:00,78.9,74.0,29.95,SSW,202,1.0,4.0,85,0.00,,,0.00,216,Wunderground v.1.15,2013-08-28 20:49:00,
2013-08-28 16:54:00,78.7,73.8,29.95,South,181,1.0,5.0,85,0.00,,,0.00,195,Wunderground v.1.15,2013-08-28 20:54:00,
2013-08-28 16:59:00,78.7,73.5,29.95,SSW,194,2.0,5.0,84,0.00,,,0.00,167,Wunderground v.1.15,2013-08-28 20:59:00,
2013-08-28 17:04:00,78.6,74.1,29.95,South,177,1.0,7.0,86,0.00,,,0.00,181,Wunderground v.1.15,2013-08-28 21:04:00,
2013-08-28 17:09:00,78.7,74.2,29.95,SSW,198,2.0,7.0,86,0.00,,,0.00,114,Wunderground v.1.15,2013-08-28 21:09:00,
2013-08-28 17:14:00,78.4,74.2,29.95,South,188,0.0,3.0,87,0.00,,,0.00,113,Wunderground v.1.15,2013-08-28 21:14:00,
2013-08-28 17:19:00,78.3,74.1,29.95,South,189,1.0,3.0,87,0.00,,,0.00,97,Wunderground v.1.15,2013-08-28 21:19:00,
2013-08-28 17:24:00,78.3,74.1,29.96,SSW,210,0.0,3.0,87,0.00,,,0.00,123,Wunderground v.1.15,2013-08-28 21:24:00,
2013-08-28 17:29:00,78.4,74.5,29.95,SW,217,0.0,3.0,88,0.00,,,0.00,146,Wunderground v.1.15,2013-08-28 21:29:00,
2013-08-28 17:34:00,78.5,74.3,29.95,SSW,210,3.0,7.0,87,0.00,,,0.00,171,Wunderground v.1.15,2013-08-28 21:34:00,
2013-08-28 17:39:00,78.6,74.4,29.95,SSW,212,3.0,3.0,87,0.00,,,0.00,146,Wunderground v.1.15,2013-08-28 21:39:00,
2013-08-28 17:44:00,78.6,74.4,29.94,SW,233,4.0,5.0,87,0.00,,,0.00,116,Wunderground v.1.15,2013-08-28 21:44:00,
2013-08-28 17:49:00,78.6,74.4,29.94,South,188,1.0,2.0,87,0.00,,,0.00,107,Wunderground v.1.15,2013-08-28 21:49:00,
2013-08-28 17:54:00,78.5,74.6,29.94,SW,214,1.0,4.0,88,0.00,,,0.00,105,Wunderground v.1.15,2013-08-28 21:54:00,
2013-08-28 17:59:00,78.4,74.5,29.94,WSW,237,2.0,2.0,88,0.00,,,0.00,81,Wunderground v.1.15,2013-08-28 21:59:00,
2013-08-28 18:05:00,78.4,74.5,29.94,SSW,197,4.0,6.0,88,0.00,,,0.00,49,Wunderground v.1.15,2013-08-28 22:05:00,
2013-08-28 18:10:00,78.3,74.5,29.93,South,184,6.0,6.0,88,0.00,,,0.00,32,Wunderground v.1.15,2013-08-28 22:10:00,
2013-08-28 18:15:00,78.1,74.3,29.93,SW,217,4.0,6.0,88,0.00,,,0.00,26,Wunderground v.1.15,2013-08-28 22:15:00,
2013-08-28 18:20:00,78.0,74.2,29.94,SW,218,2.0,3.0,88,0.00,,,0.00,28,Wunderground v.1.15,2013-08-28 22:20:00,
2013-08-28 18:25:00,77.8,74.3,29.93,SSW,196,0.0,3.0,89,0.00,,,0.00,33,Wunderground v.1.15,2013-08-28 22:25:00,
2013-08-28 18:30:00,77.7,74.2,29.93,SSW,196,0.0,1.0,89,0.00,,,0.00,40,Wunderground v.1.15,2013-08-28 22:30:00,
2013-08-28 18:35:00,77.7,74.2,29.93,SW,214,0.0,4.0,89,0.00,,,0.00,33,Wunderground v.1.15,2013-08-28 22:35:00,
2013-08-28 18:40:00,77.6,74.1,29.93,SSW,202,0.0,1.0,89,0.00,,,0.00,25,Wunderground v.1.15,2013-08-28 22:40:00,
2013-08-28 18:45:00,77.5,74.0,29.93,SW,226,1.0,4.0,89,0.00,,,0.00,14,Wunderground v.1.15,2013-08-28 22:45:00,
2013-08-28 18:50:00,77.5,74.0,29.93,SSW,201,2.0,2.0,89,0.00,,,0.00,12,Wunderground v.1.15,2013-08-28 22:50:00,
2013-08-28 18:55:00,77.4,73.9,29.93,SSW,206,1.0,5.0,89,0.00,,,0.00,11,Wunderground v.1.15,2013-08-28 22:55:00,
2013-08-28 19:00:00,77.3,73.8,29.93,SSW,213,1.0,3.0,89,0.00,,,0.00,11,Wunderground v.1.15,2013-08-28 23:00:00,
2013-08-28 19:05:00,77.2,73.7,29.93,SSW,201,2.0,3.0,89,0.00,,,0.00,12,Wunderground v.1.15,2013-08-28 23:05:00,
2013-08-28 19:10:00,77.1,73.6,29.93,South,172,1.0,3.0,89,0.00,,,0.00,14,Wunderground v.1.15,2013-08-28 23:10:00,
2013-08-28 19:15:00,76.9,73.7,29.93,SSE,160,2.0,5.0,90,0.00,,,0.00,12,Wunderground v.1.15,2013-08-28 23:15:00,
2013-08-28 19:20:00,76.8,73.6,29.92,South,190,1.0,3.0,90,0.00,,,0.01,7,Wunderground v.1.15,2013-08-28 23:20:00,
2013-08-28 19:25:00,76.7,73.5,29.92,SSW,193,0.0,3.0,90,0.00,,,0.01,5,Wunderground v.1.15,2013-08-28 23:25:00,
2013-08-28 19:30:00,76.6,73.4,29.93,SSW,203,2.0,3.0,90,0.00,,,0.01,0,Wunderground v.1.15,2013-08-28 23:30:00,
2013-08-28 19:35:00,76.6,73.4,29.93,SW,222,2.0,5.0,90,0.00,,,0.01,0,Wunderground v.1.15,2013-08-28 23:35:00,
2013-08-28 19:40:00,76.6,73.4,29.93,South,181,2.0,3.0,90,0.00,,,0.01,0,Wunderground v.1.15,2013-08-28 23:40:00,
2013-08-28 19:45:00,76.4,73.6,29.93,SW,216,0.0,3.0,91,0.00,,,0.01,0,Wunderground v.1.15,2013-08-28 23:45:00,
2013-08-28 19:50:00,76.3,73.5,29.93,SW,216,1.0,1.0,91,0.00,,,0.01,0,Wunderground v.1.15,2013-08-28 23:50:00,
2013-08-28 19:55:00,76.2,73.4,29.93,SW,217,0.0,1.0,91,0.00,,,0.01,0,Wunderground v.1.15,2013-08-28 23:55:00,
2013-08-28 20:00:00,76.1,73.6,29.93,SW,217,0.0,0.0,92,0.00,,,0.01,0,Wunderground v.1.15,2013-08-29 00:00:00,
2013-08-28 20:05:00,75.9,73.4,29.93,SSW,193,2.0,2.0,92,0.00,,,0.01,0,Wunderground v.1.15,2013-08-29 00:05:00,
2013-08-28 20:11:00,75.7,73.5,29.92,SSW,213,3.0,3.0,93,0.00,,,0.01,0,Wunderground v.1.15,2013-08-29 00:11:00,
2013-08-28 20:16:00,75.7,73.5,29.92,South,178,2.0,3.0,93,0.00,,,0.01,0,Wunderground v.1.15,2013-08-29 00:16:00,
2013-08-28 20:21:00,75.7,73.5,29.92,South,190,0.0,3.0,93,0.00,,,0.01,0,Wunderground v.1.15,2013-08-29 00:21:00,
2013-08-28 20:26:00,75.7,73.5,29.92,SSW,198,1.0,5.0,93,0.00,,,0.01,0,Wunderground v.1.15,2013-08-29 00:26:00,
2013-08-28 20:31:00,75.7,73.5,29.92,South,191,2.0,2.0,93,0.00,,,0.01,0,Wunderground v.1.15,2013-08-29 00:31:00,
2013-08-28 20:36:00,75.7,73.5,29.91,SW,215,1.0,5.0,93,0.00,,,0.01,0,Wunderground v.1.15,2013-08-29 00:36:00,
2013-08-28 20:41:00,75.7,73.8,29.92,SW,215,3.0,4.0,94,0.00,,,0.01,0,Wunderground v.1.15,2013-08-29 00:41:00,
2013-08-28 20:46:00,75.7,73.8,29.92,SSW,204,1.0,4.0,94,0.00,,,0.01,0,Wunderground v.1.15,2013-08-29 00:46:00,
2013-08-28 20:51:00,75.8,73.9,29.92,SSW,208,1.0,4.0,94,0.00,,,0.01,0,Wunderground v.1.15,2013-08-29 00:51:00,
2013-08-28 20:56:00,75.9,74.0,29.92,SSW,196,3.0,4.0,94,0.00,,,0.01,0,Wunderground v.1.15,2013-08-29 00:56:00,
2013-08-28 21:01:00,75.9,74.0,29.92,SSW,204,1.0,3.0,94,0.00,,,0.01,0,Wunderground v.1.15,2013-08-29 01:01:00,
2013-08-28 21:06:00,76.0,74.1,29.92,SSW,198,2.0,3.0,94,0.00,,,0.01,0,Wunderground v.1.15,2013-08-29 01:06:00,
2013-08-28 21:11:00,75.9,74.0,29.92,SSW,194,3.0,5.0,94,0.00,,,0.01,0,Wunderground v.1.15,2013-08-29 01:11:00,
2013-08-28 21:16:00,75.8,73.9,29.92,SSW,194,1.0,5.0,94,0.00,,,0.01,0,Wunderground v.1.15,2013-08-29 01:16:00,
2013-08-28 21:21:00,75.8,73.9,29.92,South,190,2.0,3.0,94,0.00,,,0.01,0,Wunderground v.1.15,2013-08-29 01:21:00,
2013-08-28 21:26:00,75.9,74.0,29.92,SSW,212,2.0,4.0,94,0.00,,,0.01,0,Wunderground v.1.15,2013-08-29 01:26:00,
2013-08-28 21:31:00,75.9,74.0,29.92,SSW,208,0.0,2.0,94,0.00,,,0.01,0,Wunderground v.1.15,2013-08-29 01:31:00,
2013-08-28 21:36:00,75.8,73.9,29.91,SW,217,0.0,2.0,94,0.00,,,0.01,0,Wunderground v.1.15,2013-08-29 01:36:00,
2013-08-28 21:41:00,75.9,74.0,29.91,SSW,200,1.0,2.0,94,0.00,,,0.01,0,Wunderground v.1.15,2013-08-29 01:41:00,
2013-08-28 21:46:00,76.0,74.1,29.91,SW,221,1.0,3.0,94,0.00,,,0.01,0,Wunderground v.1.15,2013-08-29 01:46:00,
2013-08-28 21:51:00,76.1,74.2,29.91,SSW,207,0.0,2.0,94,0.00,,,0.01,0,Wunderground v.1.15,2013-08-29 01:51:00,
2013-08-28 21:56:00,76.2,74.0,29.91,South,186,0.0,4.0,93,0.00,,,0.01,0,Wunderground v.1.15,2013-08-29 01:56:00,
2013-08-28 22:02:00,76.2,74.0,29.91,SSW,212,1.0,5.0,93,0.00,,,0.01,0,Wunderground v.1.15,2013-08-29 02:02:00,
2013-08-28 22:07:00,76.3,74.1,29.90,South,178,1.0,5.0,93,0.00,,,0.01,0,Wunderground v.1.15,2013-08-29 02:07:00,
2013-08-28 22:12:00,76.3,74.1,29.90,South,178,0.0,3.0,93,0.00,,,0.01,0,Wunderground v.1.15,2013-08-29 02:12:00,
2013-08-28 22:17:00,76.3,74.1,29.90,SSW,202,1.0,3.0,93,0.00,,,0.01,0,Wunderground v.1.15,2013-08-29 02:17:00,
2013-08-28 22:22:00,76.3,74.1,29.90,SSW,208,0.0,1.0,93,0.00,,,0.01,0,Wunderground v.1.15,2013-08-29 02:22:00,
2013-08-28 22:27:00,76.4,74.2,29.90,SSW,198,1.0,3.0,93,0.00,,,0.01,0,Wunderground v.1.15,2013-08-29 02:27:00,
2013-08-28 22:32:00,76.4,74.2,29.90,South,187,3.0,5.0,93,0.00,,,0.01,0,Wunderground v.1.15,2013-08-29 02:32:00,
2013-08-28 22:37:00,76.8,74.3,29.90,SSW,209,0.0,7.0,92,0.00,,,0.01,0,Wunderground v.1.15,2013-08-29 02:37:00,
2013-08-28 22:42:00,76.9,74.1,29.89,SSW,196,4.0,4.0,91,0.00,,,0.01,0,Wunderground v.1.15,2013-08-29 02:42:00,
2013-08-28 22:47:00,77.1,74.3,29.89,SW,222,1.0,5.0,91,0.00,,,0.01,0,Wunderground v.1.15,2013-08-29 02:47:00,
2013-08-28 22:52:00,77.2,74.0,29.89,NW,317,0.0,5.0,90,0.00,,,0.01,0,Wunderground v.1.15,2013-08-29 02:52:00,
2013-08-28 22:57:00,77.3,74.1,29.89,West,276,1.0,8.0,90,0.00,,,0.01,0,Wunderground v.1.15,2013-08-29 02:57:00,
2013-08-28 23:02:00,77.6,74.1,29.89,West,269,2.0,7.0,89,0.00,,,0.01,0,Wunderground v.1.15,2013-08-29 03:02:00,
2013-08-28 23:07:00,77.6,74.1,29.89,SSW,208,3.0,7.0,89,0.00,,,0.01,0,Wunderground v.1.15,2013-08-29 03:07:00,
2013-08-28 23:12:00,77.8,74.3,29.89,SSW,207,3.0,5.0,89,0.00,,,0.01,0,Wunderground v.1.15,2013-08-29 03:12:00,
2013-08-28 23:17:00,77.8,74.3,29.89,SSW,205,3.0,8.0,89,0.00,,,0.01,0,Wunderground v.1.15,2013-08-29 03:17:00,
2013-08-28 23:22:00,77.8,74.3,29.89,SW,225,3.0,5.0,89,0.00,,,0.01,0,Wunderground v.1.15,2013-08-29 03:22:00,
2013-08-28 23:27:00,77.9,74.4,29.89,SSW,206,1.0,6.0,89,0.00,,,0.01,0,Wunderground v.1.15,2013-08-29 03:27:00,
2013-08-28 23:32:00,78.0,74.5,29.90,SW,220,1.0,6.0,89,0.00,,,0.01,0,Wunderground v.1.15,2013-08-29 03:32:00,
2013-08-28 23:37:00,77.9,74.4,29.90,SW,229,4.0,7.0,89,0.00,,,0.01,0,Wunderground v.1.15,2013-08-29 03:37:00,
2013-08-28 23:42:00,77.8,74.3,29.90,SSW,202,1.0,8.0,89,0.00,,,0.01,0,Wunderground v.1.15,2013-08-29 03:42:00,
2013-08-28 23:47:00,77.8,74.3,29.90,WSW,250,1.0,8.0,89,0.00,,,0.01,0,Wunderground v.1.15,2013-08-29 03:47:00,
2013-08-28 23:52:00,77.8,74.3,29.89,NW,306,1.0,4.0,89,0.00,,,0.01,0,Wunderground v.1.15,2013-08-29 03:52:00,
2013-08-28 23:57:00,77.6,74.1,29.89,WNW,291,3.0,4.0,89,0.00,,,0.01,0,Wunderground v.1.15,2013-08-29 03:57:00,